Time;durP1;ratioP1;P1;durP2;ratioP2;P2;SDS_P1;SDS_P2;PMS_P1;PMS_P2;Temp;Humidity;BMP_temperature;BMP_pressure;BME280_temperature;BME280_humidity;BME280_pressure;Samples;Min_cycle;Max_cycle;Signal;HPM_P1;HPM_P2
2022/08/01 00:00:05;;;;;;;5.40;4.63;;;19.20;99.90;;;;;;5072719;28;20040;-84
2022/08/01 00:02:31;;;;;;;5.93;4.57;;;19.00;99.90;;;;;;5073115;28;20043;-81
2022/08/01 00:04:57;;;;;;;6.72;5.15;;;18.90;99.90;;;;;;5073077;28;20044;-82
2022/08/01 00:07:22;;;;;;;5.73;4.70;;;18.90;99.90;;;;;;5072108;28;20040;-81
2022/08/01 00:09:48;;;;;;;7.50;6.10;;;19.00;99.90;;;;;;5074016;28;20564;-83
2022/08/01 00:12:14;;;;;;;8.70;6.40;;;18.90;99.90;;;;;;5075397;28;20135;-84
2022/08/01 00:14:39;;;;;;;7.40;5.47;;;19.10;99.90;;;;;;5075747;28;20084;-83
2022/08/01 00:17:05;;;;;;;8.90;6.17;;;18.90;99.90;;;;;;5076500;28;20127;-83
2022/08/01 00:19:31;;;;;;;6.10;5.38;;;18.90;99.90;;;;;;5058846;28;20044;-82
2022/08/01 00:21:57;;;;;;;5.80;5.20;;;18.90;99.90;;;;;;5075278;28;20041;-83
2022/08/01 00:24:22;;;;;;;6.20;5.57;;;18.80;99.90;;;;;;5075384;28;20048;-83
2022/08/01 00:26:48;;;;;;;5.73;5.10;;;18.80;99.90;;;;;;5075294;28;20048;-82
2022/08/01 00:29:13;;;;;;;5.90;5.30;;;18.80;99.90;;;;;;5076648;28;20051;-83
2022/08/01 00:31:39;;;;;;;5.77;4.90;;;18.80;99.90;;;;;;5058497;28;20044;-81
2022/08/01 00:34:04;;;;;;;6.53;5.70;;;18.80;99.90;;;;;;5058610;28;20090;-82
2022/08/01 00:36:30;;;;;;;7.13;5.50;;;18.70;99.90;;;;;;5076271;28;20080;-83
2022/08/01 00:38:56;;;;;;;7.53;5.20;;;18.80;99.90;;;;;;5075068;28;20049;-82
2022/08/01 00:41:21;;;;;;;6.80;5.63;;;18.70;99.90;;;;;;5076539;28;20051;-83
2022/08/01 00:43:47;;;;;;;6.17;5.37;;;18.70;99.90;;;;;;5075047;28;20047;-84
2022/08/01 00:46:12;;;;;;;7.80;6.93;;;18.70;99.90;;;;;;5075144;28;20075;-83
2022/08/01 00:48:38;;;;;;;8.60;6.83;;;18.80;99.90;;;;;;5075956;28;20048;-83
2022/08/01 00:51:05;;;;;;;5.80;5.07;;;18.70;99.90;;;;;;5074890;28;20049;-83
2022/08/01 00:53:30;;;;;;;7.78;6.18;;;18.70;99.90;;;;;;5075729;28;20443;-81
2022/08/01 00:55:56;;;;;;;7.60;6.77;;;18.60;99.90;;;;;;5074861;28;20101;-85
2022/08/01 00:58:23;;;;;;;10.53;7.33;;;18.60;99.90;;;;;;5075335;28;20401;-81
2022/08/01 01:00:48;;;;;;;8.77;6.30;;;18.70;99.90;;;;;;5074318;28;20079;-85
2022/08/01 01:03:15;;;;;;;10.57;7.23;;;18.60;99.90;;;;;;5058130;28;20048;-84
2022/08/01 01:05:52;;;;;;;9.23;6.85;;;18.70;99.90;;;;;;5074657;28;20086;-82
2022/08/01 01:08:29;;;;;;;10.23;7.38;;;18.80;99.90;;;;;;5074519;28;20052;-84
2022/08/01 01:11:03;;;;;;;8.65;6.70;;;18.60;99.90;;;;;;5075794;28;20052;-81
2022/08/01 01:13:40;;;;;;;10.13;7.40;;;18.70;99.90;;;;;;5074661;28;20049;-81
2022/08/01 01:16:09;;;;;;;;;;;18.80;99.90;;;;;;5075783;28;20055;-81
2022/08/01 01:18:40;;;;;;;8.02;6.93;;;18.60;99.90;;;;;;5074981;28;19927;-83
2022/08/01 01:21:09;;;;;;;10.10;7.63;;;18.80;99.90;;;;;;5073851;28;20535;-83
2022/08/01 01:23:45;;;;;;;11.70;8.55;;;18.60;99.90;;;;;;5075188;28;20059;-82
2022/08/01 01:26:54;;;;;;;10.10;8.02;;;18.60;99.90;;;;;;5074419;28;20053;-83
2022/08/01 01:29:39;;;;;;;;;;;18.60;99.90;;;;;;5073962;28;20122;-83
2022/08/01 01:32:10;;;;;;;10.50;8.60;;;18.60;99.90;;;;;;5057237;28;19925;-82
2022/08/01 01:34:43;;;;;;;10.30;8.45;;;18.60;99.90;;;;;;5074292;28;20504;-82
2022/08/01 01:37:14;;;;;;;11.50;8.73;;;18.60;99.90;;;;;;5074958;28;20392;-83
2022/08/01 01:39:41;;;;;;;10.23;8.10;;;18.80;99.90;;;;;;5073860;28;20040;-80
2022/08/01 01:42:08;;;;;;;9.57;8.18;;;18.60;99.90;;;;;;5074781;28;20044;-83
2022/08/01 01:44:34;;;;;;;;;;;18.60;99.90;;;;;;5074257;28;20480;-82
2022/08/01 01:47:00;;;;;;;10.77;8.18;;;18.90;99.90;;;;;;5074522;28;20331;-82
2022/08/01 01:49:27;;;;;;;10.75;8.60;;;18.60;99.90;;;;;;5074723;28;20404;-84
2022/08/01 01:51:56;;;;;;;9.43;7.90;;;18.50;99.90;;;;;;5074604;28;20397;-83
2022/08/01 01:54:36;;;;;;;10.32;7.75;;;18.60;99.90;;;;;;5074323;28;20048;-82
2022/08/01 01:57:04;;;;;;;8.27;7.38;;;18.60;99.90;;;;;;5073691;28;20409;-81
2022/08/01 01:59:32;;;;;;;8.90;7.47;;;18.60;99.90;;;;;;5073318;28;20109;-82
2022/08/01 02:02:02;;;;;;;11.10;7.75;;;18.70;99.90;;;;;;5074649;28;20044;-82
2022/08/01 02:04:29;;;;;;;9.55;7.50;;;18.80;99.90;;;;;;5073470;28;20084;-81
2022/08/01 02:06:56;;;;;;;9.88;6.82;;;18.60;99.90;;;;;;5073387;28;20397;-81
2022/08/01 02:09:24;;;;;;;10.30;8.27;;;18.50;99.90;;;;;;5073414;28;20040;-83
2022/08/01 02:11:50;;;;;;;7.90;6.88;;;18.60;99.90;;;;;;5073149;28;20043;-81
2022/08/01 02:14:18;;;;;;;10.20;7.85;;;18.50;99.90;;;;;;5073309;28;20106;-82
2022/08/01 02:16:47;;;;;;;8.32;6.90;;;18.50;99.90;;;;;;5074208;28;20055;-83
2022/08/01 02:19:14;;;;;;;9.27;6.72;;;18.50;99.90;;;;;;5073178;28;20040;-83
2022/08/01 02:21:51;;;;;;;8.90;7.47;;;18.60;99.90;;;;;;5074183;28;20048;-83
2022/08/01 02:24:28;;;;;;;10.52;7.03;;;18.50;99.90;;;;;;5074407;28;20077;-81
2022/08/01 02:26:59;;;;;;;8.77;6.80;;;18.50;99.90;;;;;;5074082;28;20052;-83
2022/08/01 02:29:32;;;;;;;9.68;7.03;;;18.50;99.90;;;;;;5073800;28;20506;-81
2022/08/01 02:32:00;;;;;;;7.38;5.40;;;18.50;99.90;;;;;;5074423;28;20083;-81
2022/08/01 02:34:31;;;;;;;6.80;4.97;;;18.40;99.90;;;;;;5074274;28;20048;-81
2022/08/01 02:37:00;;;;;;;8.43;5.03;;;18.40;99.90;;;;;;5072998;28;20056;-83
2022/08/01 02:39:28;;;;;;;5.13;4.43;;;18.70;99.90;;;;;;5072860;28;20047;-83
2022/08/01 02:41:57;;;;;;;6.05;4.38;;;18.40;99.90;;;;;;5056276;28;20047;-83
2022/08/01 02:44:27;;;;;;;6.00;5.07;;;18.30;99.90;;;;;;5073700;28;20048;-81
2022/08/01 02:47:02;;;;;;;6.40;4.10;;;18.30;99.90;;;;;;5072787;28;20046;-84
2022/08/01 02:49:32;;;;;;;5.82;4.35;;;18.30;99.90;;;;;;5074119;28;20057;-81
2022/08/01 02:52:01;;;;;;;7.20;4.43;;;18.30;99.90;;;;;;5072624;28;20106;-81
2022/08/01 02:54:28;;;;;;;7.07;4.07;;;18.40;99.90;;;;;;5056065;28;20473;-81
2022/08/01 02:56:55;;;;;;;7.10;3.97;;;18.30;99.90;;;;;;5055980;28;20088;-83
2022/08/01 02:59:25;;;;;;;5.10;4.00;;;18.40;99.90;;;;;;5072689;28;20044;-82
2022/08/01 03:01:53;;;;;;;6.13;4.55;;;18.30;99.90;;;;;;5073623;28;20102;-83
2022/08/01 03:04:21;;;;;;;5.65;3.60;;;18.30;99.90;;;;;;5073550;28;20041;-82
2022/08/01 03:06:47;;;;;;;6.75;4.88;;;18.60;99.90;;;;;;5073520;28;20503;-83
2022/08/01 03:09:16;;;;;;;5.40;4.72;;;18.30;99.90;;;;;;5074132;28;20048;-82
2022/08/01 03:11:42;;;;;;;5.25;4.28;;;18.30;99.90;;;;;;5072243;28;20056;-83
2022/08/01 03:14:09;;;;;;;;;;;18.30;99.90;;;;;;5073623;28;20127;-81
2022/08/01 03:16:39;;;;;;;6.13;3.50;;;18.40;99.90;;;;;;5073017;28;19943;-83
2022/08/01 03:19:08;;;;;;;5.70;4.70;;;18.30;99.90;;;;;;5072338;28;20040;-80
2022/08/01 03:21:35;;;;;;;4.43;3.97;;;18.30;99.90;;;;;;5072326;28;20213;-82
2022/08/01 03:24:03;;;;;;;5.78;3.50;;;18.20;99.90;;;;;;5072121;28;20049;-82
2022/08/01 03:26:31;;;;;;;6.28;4.20;;;18.20;99.90;;;;;;5072448;28;20037;-84
2022/08/01 03:29:01;;;;;;;5.38;4.32;;;18.20;99.90;;;;;;5056003;28;20071;-80
2022/08/01 03:31:28;;;;;;;4.53;3.80;;;18.20;99.90;;;;;;5073688;28;20044;-81
2022/08/01 03:33:54;;;;;;;;;;;18.20;99.90;;;;;;5073652;28;20051;-82
2022/08/01 03:36:26;;;;;;;4.68;2.95;;;18.10;99.90;;;;;;5073381;28;20346;-79
2022/08/01 03:38:55;;;;;;;6.57;3.25;;;18.10;99.90;;;;;;5073323;28;20131;-80
2022/08/01 03:41:23;;;;;;;5.53;2.60;;;18.10;99.90;;;;;;5073406;28;20086;-82
2022/08/01 03:43:59;;;;;;;4.53;2.70;;;18.10;99.90;;;;;;5073590;28;20044;-81
2022/08/01 03:46:44;;;;;;;5.60;2.80;;;18.10;99.90;;;;;;5077334;28;20052;-81
2022/08/01 03:49:30;;;;;;;5.55;2.67;;;18.20;99.90;;;;;;5075558;28;20053;-81
2022/08/01 03:51:56;;;;;;;4.72;2.70;;;18.20;99.90;;;;;;5076041;28;20045;-82
2022/08/01 03:54:24;;;;;;;;;;;18.00;99.90;;;;;;5076382;28;20051;-81
2022/08/01 03:56:51;;;;;;;3.03;1.83;;;17.90;99.90;;;;;;5075918;28;19920;-80
2022/08/01 03:59:18;;;;;;;5.05;1.95;;;17.90;99.90;;;;;;5076822;28;20040;-81
2022/08/01 04:01:44;;;;;;;;;;;18.10;99.90;;;;;;5077150;28;20044;-79
2022/08/01 04:04:10;;;;;;;5.63;2.00;;;17.80;99.90;;;;;;5075479;28;19927;-83
2022/08/01 04:06:39;;;;;;;4.37;1.83;;;17.90;99.90;;;;;;5077084;28;20045;-82
2022/08/01 04:09:07;;;;;;;4.50;1.83;;;17.80;99.90;;;;;;5076615;28;20275;-80
2022/08/01 04:11:33;;;;;;;5.15;1.90;;;17.80;99.90;;;;;;5076574;28;20123;-82
2022/08/01 04:13:59;;;;;;;5.37;2.00;;;17.80;99.90;;;;;;5076474;28;20519;-82
2022/08/01 04:16:24;;;;;;;3.37;1.60;;;17.80;99.90;;;;;;5075560;28;20040;-81
2022/08/01 04:18:50;;;;;;;3.83;1.63;;;18.20;99.90;;;;;;5076485;28;20044;-82
2022/08/01 04:21:20;;;;;;;5.50;1.87;;;17.80;99.90;;;;;;5076454;28;20048;-81
2022/08/01 04:23:47;;;;;;;4.97;1.70;;;17.80;99.90;;;;;;5075206;28;20052;-81
2022/08/01 04:26:14;;;;;;;5.45;1.92;;;17.80;99.90;;;;;;5075472;28;20496;-83
2022/08/01 04:28:40;;;;;;;6.30;1.85;;;17.90;99.90;;;;;;5076329;28;20041;-81
2022/08/01 04:31:11;;;;;;;3.93;1.93;;;17.80;99.90;;;;;;5076261;28;20044;-83
2022/08/01 04:33:40;;;;;;;3.58;1.90;;;17.80;99.90;;;;;;5076005;28;20278;-84
2022/08/01 04:36:09;;;;;;;3.42;1.90;;;17.90;99.90;;;;;;5041950;28;20401;-83
2022/08/01 04:38:36;;;;;;;3.28;1.80;;;17.80;99.90;;;;;;5075851;28;20507;-80
2022/08/01 04:41:06;;;;;;;4.18;1.85;;;17.80;99.90;;;;;;5074678;28;20443;-82
2022/08/01 04:43:32;;;;;;;8.00;2.08;;;17.80;99.90;;;;;;5058903;28;20135;-81
2022/08/01 04:45:58;;;;;;;2.93;1.60;;;17.80;99.90;;;;;;5075969;28;20083;-82
2022/08/01 04:48:25;;;;;;;4.82;1.70;;;17.80;99.90;;;;;;5075645;28;20102;-81
2022/08/01 04:50:51;;;;;;;2.88;1.60;;;17.80;99.90;;;;;;5074966;28;20385;-81
2022/08/01 04:53:19;;;;;;;5.53;2.20;;;18.00;99.90;;;;;;5076016;28;20044;-82
2022/08/01 04:55:48;;;;;;;8.68;2.00;;;17.70;99.90;;;;;;5074377;28;20044;-80
2022/08/01 04:58:17;;;;;;;5.55;1.90;;;17.80;99.90;;;;;;5075653;28;20092;-82
2022/08/01 05:00:42;;;;;;;4.45;1.75;;;17.70;99.90;;;;;;5058250;28;20135;-80
2022/08/01 05:03:08;;;;;;;5.13;1.73;;;17.70;99.90;;;;;;5075440;28;20076;-83
2022/08/01 05:05:34;;;;;;;3.70;2.10;;;17.70;99.90;;;;;;5074658;28;20412;-82
2022/08/01 05:08:00;;;;;;;7.25;1.67;;;17.70;99.90;;;;;;5074705;28;20366;-81
2022/08/01 05:10:27;;;;;;;4.37;1.90;;;17.70;99.90;;;;;;5074561;28;20043;-81
2022/08/01 05:12:52;;;;;;;5.18;2.08;;;17.70;99.90;;;;;;5074127;28;20040;-84
2022/08/01 05:15:18;;;;;;;10.13;2.30;;;17.80;99.90;;;;;;5075432;28;20047;-85
2022/08/01 05:17:44;;;;;;;3.70;2.00;;;17.80;99.90;;;;;;5075378;28;20511;-81
2022/08/01 05:20:11;;;;;;;5.00;1.83;;;17.80;99.90;;;;;;5075318;28;20503;-84
2022/08/01 05:22:37;;;;;;;6.10;2.10;;;17.80;99.90;;;;;;5074282;28;20044;-84
2022/08/01 05:25:04;;;;;;;6.37;1.90;;;17.80;99.90;;;;;;5074995;28;20485;-84
2022/08/01 05:27:30;;;;;;;8.30;2.70;;;17.80;99.90;;;;;;5074179;28;20401;-87
2022/08/01 05:29:56;;;;;;;10.23;2.80;;;17.80;99.90;;;;;;5073944;28;20080;-84
2022/08/01 05:32:22;;;;;;;8.77;2.50;;;17.80;99.90;;;;;;5074974;28;20084;-85
2022/08/01 05:34:47;;;;;;;6.20;2.30;;;18.20;99.90;;;;;;5074985;28;20051;-85
2022/08/01 05:37:13;;;;;;;8.80;2.37;;;18.00;99.90;;;;;;5074002;28;20128;-85
2022/08/01 05:39:39;;;;;;;7.50;2.53;;;17.80;99.90;;;;;;5074958;28;20078;-85
2022/08/01 05:42:04;;;;;;;5.57;2.30;;;17.80;99.90;;;;;;5073885;28;20462;-80
2022/08/01 05:44:30;;;;;;;9.47;2.60;;;17.80;99.90;;;;;;5074882;28;20051;-80
2022/08/01 05:46:56;;;;;;;5.50;2.43;;;17.80;99.90;;;;;;5073465;28;20040;-83
2022/08/01 05:49:21;;;;;;;8.70;2.97;;;17.80;99.90;;;;;;5074755;28;20041;-82
2022/08/01 05:51:52;;;;;;;8.73;3.40;;;17.90;99.90;;;;;;5073027;28;20035;-84
2022/08/01 05:54:18;;;;;;;8.00;2.85;;;17.90;99.90;;;;;;5074462;28;20500;-82
2022/08/01 05:56:43;;;;;;;7.70;2.87;;;18.00;99.90;;;;;;5073635;28;20052;-82
2022/08/01 05:59:09;;;;;;;8.43;3.37;;;18.00;99.90;;;;;;5057020;28;20612;-79
2022/08/01 06:01:34;;;;;;;5.07;2.33;;;18.00;99.90;;;;;;5074473;28;20041;-83
2022/08/01 06:04:00;;;;;;;8.37;2.70;;;18.10;99.90;;;;;;5074415;28;20472;-84
2022/08/01 06:06:25;;;;;;;8.13;2.77;;;18.10;99.90;;;;;;5074007;28;20049;-82
2022/08/01 06:08:51;;;;;;;7.37;2.50;;;18.10;99.90;;;;;;5073260;28;20040;-83
2022/08/01 06:11:17;;;;;;;10.47;2.80;;;18.00;99.90;;;;;;5073240;28;20047;-84
2022/08/01 06:13:43;;;;;;;7.87;2.53;;;17.90;99.90;;;;;;5074359;28;20139;-84
2022/08/01 06:16:08;;;;;;;9.37;2.80;;;17.90;99.90;;;;;;5057062;28;20040;-78
2022/08/01 06:18:34;;;;;;;6.83;2.90;;;17.90;99.90;;;;;;5074230;28;20048;-84
2022/08/01 06:20:59;;;;;;;9.20;2.90;;;17.90;99.90;;;;;;5073659;28;20040;-80
2022/08/01 06:23:25;;;;;;;8.70;2.77;;;17.90;99.90;;;;;;5075457;28;20041;-82
2022/08/01 06:25:54;;;;;;;15.37;3.37;;;17.80;99.90;;;;;;5073998;28;20393;-81
2022/08/01 06:28:21;;;;;;;11.65;2.70;;;17.90;99.90;;;;;;5073312;28;20048;-79
2022/08/01 06:30:46;;;;;;;9.77;2.95;;;17.90;99.90;;;;;;5073034;28;20059;-80
2022/08/01 06:33:12;;;;;;;7.30;3.10;;;17.90;99.90;;;;;;5073878;28;20048;-79
2022/08/01 06:35:37;;;;;;;11.30;3.07;;;18.00;99.90;;;;;;5073945;28;20063;-79
2022/08/01 06:38:03;;;;;;;12.07;2.83;;;18.10;99.90;;;;;;5072616;28;20135;-79
2022/08/01 06:40:29;;;;;;;12.60;3.37;;;18.10;99.90;;;;;;5073542;28;20056;-80
2022/08/01 06:42:54;;;;;;;9.63;3.00;;;18.40;99.90;;;;;;5074111;28;20480;-80
2022/08/01 06:45:22;;;;;;;8.63;2.47;;;18.40;99.90;;;;;;5074001;28;20052;-81
2022/08/01 06:47:48;;;;;;;10.80;2.88;;;18.40;99.90;;;;;;5072335;28;20048;-86
2022/08/01 06:50:14;;;;;;;8.40;2.43;;;18.40;99.90;;;;;;5074045;28;20052;-85
2022/08/01 06:52:40;;;;;;;7.53;2.50;;;18.40;99.90;;;;;;5072711;28;20701;-83
2022/08/01 06:55:07;;;;;;;11.38;2.83;;;18.40;99.90;;;;;;5056168;28;20166;-85
2022/08/01 06:57:33;;;;;;;13.23;2.85;;;18.40;99.90;;;;;;5073895;28;20095;-86
2022/08/01 07:00:10;;;;;;;13.77;2.97;;;18.50;99.90;;;;;;5073715;28;20080;-84
2022/08/01 07:02:36;;;;;;;11.60;2.92;;;18.50;99.90;;;;;;5071090;28;20068;-82
2022/08/01 07:05:03;;;;;;;15.93;3.20;;;18.50;99.90;;;;;;5071970;28;20072;-83
2022/08/01 07:07:29;;;;;;;9.48;2.60;;;18.40;99.90;;;;;;5073452;28;20393;-86
2022/08/01 07:09:55;;;;;;;10.95;3.05;;;18.60;99.90;;;;;;5073343;28;20385;-81
2022/08/01 07:12:21;;;;;;;14.53;3.23;;;18.40;99.90;;;;;;5073279;28;20094;-79
2022/08/01 07:14:46;;;;;;;15.37;3.27;;;18.50;99.90;;;;;;5073320;28;20036;-80
2022/08/01 07:17:12;;;;;;;10.93;3.13;;;18.50;99.90;;;;;;5073153;28;20048;-82
2022/08/01 07:19:37;;;;;;;13.23;3.13;;;18.70;99.90;;;;;;5057493;28;20131;-80
2022/08/01 07:22:03;;;;;;;11.10;2.97;;;18.80;99.90;;;;;;5077218;28;20466;-81
2022/08/01 07:24:29;;;;;;;10.17;2.73;;;18.70;99.90;;;;;;5077240;28;20046;-80
2022/08/01 07:26:57;;;;;;;12.83;3.07;;;18.80;99.90;;;;;;5077422;28;20044;-80
2022/08/01 07:29:24;;;;;;;14.85;3.20;;;18.80;99.90;;;;;;5076980;28;20044;-81
2022/08/01 07:31:55;;;;;;;13.40;3.35;;;18.80;99.90;;;;;;5075867;28;20041;-82
2022/08/01 07:34:21;;;;;;;13.07;3.03;;;18.80;99.90;;;;;;5077260;28;20051;-83
2022/08/01 07:36:47;;;;;;;12.07;3.30;;;18.90;99.90;;;;;;5076038;28;20045;-81
2022/08/01 07:39:12;;;;;;;15.57;3.77;;;19.00;99.90;;;;;;5075883;28;20067;-84
2022/08/01 07:41:38;;;;;;;13.17;3.00;;;19.00;99.90;;;;;;5059504;28;20101;-83
2022/08/01 07:44:04;;;;;;;12.30;2.73;;;19.00;99.90;;;;;;5076996;28;20446;-82
2022/08/01 07:46:30;;;;;;;13.75;3.10;;;19.00;99.90;;;;;;5075655;28;20041;-83
2022/08/01 07:48:56;;;;;;;12.48;3.03;;;19.00;99.90;;;;;;5076512;28;20056;-83
2022/08/01 07:51:22;;;;;;;9.53;2.57;;;19.00;99.90;;;;;;5075939;28;20399;-83
2022/08/01 07:53:47;;;;;;;12.27;2.87;;;19.10;99.90;;;;;;5075213;28;20048;-81
2022/08/01 07:56:13;;;;;;;13.93;3.50;;;19.20;99.90;;;;;;5075867;28;20044;-81
2022/08/01 07:58:38;;;;;;;12.77;3.17;;;19.00;99.90;;;;;;5076807;28;20131;-85
2022/08/01 08:01:04;;;;;;;11.83;2.97;;;18.90;99.90;;;;;;5075453;28;20051;-86
2022/08/01 08:03:30;;;;;;;17.33;3.43;;;18.90;99.90;;;;;;5076657;28;20040;-83
2022/08/01 08:05:55;;;;;;;11.40;2.97;;;18.90;99.90;;;;;;5092562;28;20102;-84
2022/08/01 08:08:21;;;;;;;13.67;3.03;;;18.90;99.90;;;;;;5076583;28;20041;-86
2022/08/01 08:10:47;;;;;;;12.47;2.93;;;18.90;99.90;;;;;;5058996;28;20055;-84
2022/08/01 08:13:13;;;;;;;14.50;3.47;;;19.00;99.90;;;;;;5076142;28;20055;-82
2022/08/01 08:15:38;;;;;;;10.83;3.23;;;18.90;99.90;;;;;;5076359;28;20094;-84
2022/08/01 08:18:05;;;;;;;11.53;3.03;;;18.90;99.90;;;;;;5076538;28;20044;-85
2022/08/01 08:20:30;;;;;;;13.95;3.30;;;18.80;99.90;;;;;;5076530;28;20044;-86
2022/08/01 08:22:58;;;;;;;13.30;2.93;;;18.90;99.90;;;;;;5075109;28;20044;-85
2022/08/01 08:25:25;;;;;;;10.52;3.15;;;18.80;99.90;;;;;;5058607;28;20060;-84
2022/08/01 08:27:51;;;;;;;12.68;3.40;;;18.80;99.90;;;;;;5075149;28;20548;-86
2022/08/01 08:30:17;;;;;;;11.32;2.88;;;18.90;99.90;;;;;;5074479;28;20133;-85
2022/08/01 08:32:43;;;;;;;14.40;3.37;;;18.90;99.90;;;;;;5074563;28;20079;-84
2022/08/01 08:35:09;;;;;;;12.77;3.00;;;19.00;99.90;;;;;;5074727;28;20446;-84
2022/08/01 08:37:36;;;;;;;10.98;3.25;;;19.10;99.90;;;;;;5058419;28;20048;-83
2022/08/01 08:40:04;;;;;;;9.48;2.80;;;19.10;99.90;;;;;;5058373;28;20047;-84
2022/08/01 08:42:30;;;;;;;13.18;2.80;;;19.10;99.90;;;;;;5074637;28;20047;-84
2022/08/01 08:44:55;;;;;;;10.67;3.00;;;19.20;99.90;;;;;;5074699;28;20044;-85
2022/08/01 08:47:23;;;;;;;12.23;3.17;;;19.20;99.90;;;;;;5074579;28;20591;-84
2022/08/01 08:49:52;;;;;;;18.00;3.20;;;19.30;99.90;;;;;;5075244;28;20397;-84
2022/08/01 08:52:21;;;;;;;12.73;3.13;;;19.40;99.90;;;;;;5075572;28;20073;-85
2022/08/01 08:54:49;;;;;;;15.23;3.30;;;19.40;99.90;;;;;;5074788;28;20045;-83
2022/08/01 08:57:15;;;;;;;13.15;3.10;;;19.40;99.90;;;;;;5057995;28;20045;-86
2022/08/01 08:59:42;;;;;;;12.40;2.88;;;19.60;99.90;;;;;;5057803;28;20051;-85
2022/08/01 09:02:09;;;;;;;9.82;2.72;;;19.60;99.90;;;;;;5058024;28;20044;-87
2022/08/01 09:04:36;;;;;;;13.52;2.90;;;19.70;99.90;;;;;;5074514;28;20044;-85
2022/08/01 09:07:04;;;;;;;10.55;2.85;;;19.70;99.90;;;;;;5074284;28;20048;-82
2022/08/01 09:09:30;;;;;;;9.88;2.42;;;19.70;99.90;;;;;;5075338;28;20066;-81
2022/08/01 09:11:55;;;;;;;10.60;3.03;;;19.80;99.90;;;;;;5075310;28;20043;-83
2022/08/01 09:14:23;;;;;;;13.60;2.73;;;19.90;99.90;;;;;;5075121;28;20086;-84
2022/08/01 09:17:06;;;;;;;9.20;2.65;;;19.90;99.90;;;;;;5074214;28;20036;-85
2022/08/01 09:19:53;;;;;;;11.48;2.65;;;20.10;99.90;;;;;;5075015;28;20091;-84
2022/08/01 09:22:22;;;;;;;10.98;2.90;;;20.10;99.90;;;;;;5074142;28;20127;-84
2022/08/01 09:25:03;;;;;;;14.07;2.78;;;20.10;99.90;;;;;;5075054;28;20106;-82
2022/08/01 09:27:30;;;;;;;10.07;2.70;;;20.20;99.90;;;;;;5073546;28;20048;-81
2022/08/01 09:30:16;;;;;;;14.60;2.90;;;20.40;99.90;;;;;;5074612;28;20123;-83
2022/08/01 09:33:00;;;;;;;11.38;3.10;;;20.50;99.90;;;;;;5074980;28;20041;-82
2022/08/01 09:35:34;;;;;;;9.68;2.80;;;20.70;99.90;;;;;;5074300;28;20045;-82
2022/08/01 09:38:21;;;;;;;7.72;2.53;;;20.80;99.90;;;;;;5074870;28;20119;-86
2022/08/01 09:40:58;;;;;;;8.90;2.20;;;21.00;99.90;;;;;;5073370;28;20399;-82
2022/08/01 09:43:28;;;;;;;9.60;2.67;;;20.80;99.90;;;;;;5074008;28;20045;-83
2022/08/01 09:45:55;;;;;;;12.23;2.72;;;20.70;99.90;;;;;;5074626;28;20057;-81
2022/08/01 09:48:21;;;;;;;11.23;2.47;;;20.60;99.90;;;;;;5074655;28;20048;-85
2022/08/01 09:50:49;;;;;;;10.82;2.85;;;20.30;99.90;;;;;;5073323;28;20493;-82
2022/08/01 09:53:16;;;;;;;10.10;2.25;;;20.50;99.90;;;;;;5090191;28;20086;-82
2022/08/01 09:55:42;;;;;;;10.73;2.80;;;20.50;99.90;;;;;;5074472;28;20128;-82
2022/08/01 09:58:10;;;;;;;5.72;2.20;;;20.80;99.90;;;;;;5071734;28;20047;-80
2022/08/01 10:00:35;;;;;;;9.20;2.53;;;20.50;99.90;;;;;;5054513;28;20170;-83
2022/08/01 10:03:25;;;;;;;10.17;2.73;;;20.40;99.90;;;;;;5054555;28;20095;-81
2022/08/01 10:05:53;;;;;;;8.18;2.10;;;20.50;99.90;;;;;;5053705;28;20052;-82
2022/08/01 10:08:20;;;;;;;9.70;2.42;;;20.60;99.90;;;;;;5070361;28;20393;-82
2022/08/01 10:11:09;;;;;;;9.00;2.45;;;20.60;99.90;;;;;;5036494;28;20041;-83
2022/08/01 10:13:35;;;;;;;7.57;2.20;;;20.70;99.90;;;;;;5053857;28;20088;-83
2022/08/01 10:16:02;;;;;;;7.77;2.13;;;20.80;99.90;;;;;;5053854;28;20091;-81
2022/08/01 10:18:31;;;;;;;6.97;2.10;;;20.80;99.90;;;;;;5054077;28;20044;-79
2022/08/01 10:20:59;;;;;;;8.07;1.95;;;20.90;99.90;;;;;;5054010;28;20154;-80
2022/08/01 10:23:33;;;;;;;9.27;2.03;;;21.00;99.90;;;;;;5053633;28;20056;-82
2022/08/01 10:26:01;;;;;;;6.18;1.95;;;21.40;99.90;;;;;;5069319;28;20049;-88
2022/08/01 10:28:30;;;;;;;7.50;1.73;;;21.30;99.90;;;;;;5052458;28;20174;-86
2022/08/01 10:30:57;;;;;;;6.63;1.85;;;21.60;99.90;;;;;;5052886;28;20044;-88
2022/08/01 10:33:23;;;;;;;10.27;2.30;;;21.60;99.90;;;;;;5052916;28;20053;-89
2022/08/01 10:35:50;;;;;;;7.97;1.90;;;21.70;99.90;;;;;;5069477;28;20516;-89
2022/08/01 10:38:26;;;;;;;9.48;2.28;;;21.70;99.90;;;;;;5070063;28;20510;-94
2022/08/01 10:40:56;;;;;;;12.98;2.42;;;21.60;99.90;;;;;;5036040;28;20044;-89
2022/08/01 10:43:22;;;;;;;7.13;1.80;;;21.40;99.90;;;;;;5052859;28;20056;-88
2022/08/01 10:45:49;;;;;;;7.27;1.90;;;21.40;99.90;;;;;;5035767;28;20456;-89
2022/08/01 10:48:22;;;;;;;5.05;1.80;;;21.60;99.90;;;;;;5052138;28;20135;-87
2022/08/01 10:50:53;;;;;;;9.10;2.05;;;21.70;99.90;;;;;;5052544;28;20055;-85
2022/08/01 10:53:25;;;;;;;7.70;1.88;;;21.80;99.90;;;;;;5035574;28;20103;-88
2022/08/01 10:56:01;;;;;;;8.23;1.88;;;22.10;99.90;;;;;;5052901;28;20508;-87
2022/08/01 10:58:38;;;;;;;10.00;2.47;;;21.90;99.90;;;;;;5052588;28;20049;-84
2022/08/01 11:01:22;;;;;;;6.25;1.90;;;21.80;99.90;;;;;;5053555;28;20045;-83
2022/08/01 11:03:59;;;;;;;8.20;2.13;;;21.70;99.90;;;;;;5052174;28;20130;-80
2022/08/01 11:06:51;;;;;;;10.38;2.20;;;21.60;99.90;;;;;;5053571;28;20049;-82
2022/08/01 11:09:24;;;;;;;6.03;1.70;;;21.50;99.90;;;;;;5053224;28;20045;-82
2022/08/01 11:12:00;;;;;;;9.15;1.88;;;21.40;99.90;;;;;;5053312;28;20041;-81
2022/08/01 11:14:25;;;;;;;7.72;1.98;;;21.40;99.90;;;;;;5053137;28;20045;-79
2022/08/01 11:16:51;;;;;;;8.93;1.80;;;21.50;99.90;;;;;;5053212;28;20172;-81
2022/08/01 11:19:17;;;;;;;9.73;2.23;;;21.50;99.90;;;;;;5053178;28;20127;-79
2022/08/01 11:21:55;;;;;;;9.47;2.43;;;21.60;99.90;;;;;;5053423;28;20041;-79
2022/08/01 11:24:45;;;;;;;9.05;2.05;;;21.60;99.90;;;;;;5052831;28;20400;-79
2022/08/01 11:27:32;;;;;;;4.45;1.50;;;21.60;99.90;;;;;;5053054;28;20045;-79
2022/08/01 11:30:09;;;;;;;6.28;1.70;;;21.60;99.90;;;;;;5052491;28;20105;-79
2022/08/01 11:32:53;;;;;;;5.10;1.40;;;21.70;99.90;;;;;;5052892;28;20044;-80
2022/08/01 11:35:23;;;;;;;7.20;1.50;;;21.80;99.90;;;;;;5052748;28;20393;-80
2022/08/01 11:37:51;;;;;;;7.60;1.75;;;21.70;99.90;;;;;;5053028;28;20045;-82
2022/08/01 11:40:17;;;;;;;6.60;1.63;;;21.70;99.90;;;;;;5053034;28;20076;-82
2022/08/01 11:42:43;;;;;;;6.68;1.60;;;21.80;99.90;;;;;;5053243;28;20037;-81
2022/08/01 11:45:11;;;;;;;6.23;1.30;;;21.80;99.90;;;;;;5053094;28;20393;-79
2022/08/01 11:47:49;;;;;;;7.70;1.90;;;22.00;99.90;;;;;;5052849;28;20060;-79
2022/08/01 11:50:35;;;;;;;7.55;2.00;;;22.10;99.90;;;;;;5053186;28;20045;-84
2022/08/01 11:53:07;;;;;;;9.23;1.80;;;22.00;99.90;;;;;;5051460;28;20572;-82
2022/08/01 11:55:36;;;;;;;5.22;1.50;;;22.00;99.90;;;;;;5052932;28;20060;-80
2022/08/01 11:58:05;;;;;;;5.85;1.33;;;22.00;99.90;;;;;;5052640;28;20091;-83
2022/08/01 12:00:31;;;;;;;6.35;1.60;;;22.10;99.90;;;;;;5052400;28;20045;-82
2022/08/01 12:03:03;;;;;;;5.32;1.77;;;22.10;99.90;;;;;;5052897;28;20048;-81
2022/08/01 12:05:30;;;;;;;5.07;1.52;;;22.30;99.90;;;;;;5054234;28;20102;-84
2022/08/01 12:07:56;;;;;;;4.82;1.30;;;22.40;99.90;;;;;;5071720;28;20037;-81
2022/08/01 12:10:25;;;;;;;4.65;1.40;;;22.50;99.90;;;;;;5056528;28;20098;-82
2022/08/01 12:12:52;;;;;;;9.75;1.95;;;22.60;99.90;;;;;;5055161;28;20073;-81
2022/08/01 12:15:19;;;;;;;8.07;2.10;;;22.80;99.90;;;;;;5056368;28;20094;-79
2022/08/01 12:17:59;;;;;;;5.93;1.40;;;22.90;99.90;;;;;;5056412;28;20044;-82
2022/08/01 12:20:37;;;;;;;6.15;1.77;;;22.90;99.90;;;;;;5055201;28;20047;-80
2022/08/01 12:23:07;;;;;;;3.67;1.50;;;22.90;99.90;;;;;;5056104;28;20048;-85
2022/08/01 12:25:33;;;;;;;4.57;1.15;;;22.90;99.90;;;;;;5056119;28;20045;-86
2022/08/01 12:28:04;;;;;;;7.85;1.35;;;22.90;99.90;;;;;;5055014;28;20485;-84
2022/08/01 12:30:31;;;;;;;4.97;1.58;;;23.00;99.90;;;;;;5055286;28;20499;-79
2022/08/01 12:32:57;;;;;;;6.95;1.23;;;23.10;99.90;;;;;;5056116;28;20048;-83
2022/08/01 12:35:25;;;;;;;5.68;1.58;;;22.90;99.90;;;;;;5055100;28;20041;-82
2022/08/01 12:37:52;;;;;;;3.35;1.20;;;22.80;99.90;;;;;;5055543;28;20477;-79
2022/08/01 12:40:25;;;;;;;2.97;1.00;;;22.70;99.90;;;;;;5055883;28;20045;-81
2022/08/01 12:42:55;;;;;;;6.53;1.35;;;22.60;99.90;;;;;;5054898;28;20505;-80
2022/08/01 12:45:27;;;;;;;5.03;1.45;;;22.60;99.90;;;;;;5055733;28;20049;-82
2022/08/01 12:47:53;;;;;;;4.05;1.35;;;22.60;99.90;;;;;;5055820;28;20068;-78
2022/08/01 12:50:24;;;;;;;5.45;1.38;;;22.80;99.90;;;;;;5055414;28;20136;-81
2022/08/01 12:52:50;;;;;;;5.82;1.50;;;22.90;99.90;;;;;;5055517;28;20037;-79